Time;durP1;ratioP1;P1;durP2;ratioP2;P2;SDS_P1;SDS_P2;PMS_P1;PMS_P2;Temp;Humidity;BMP_temperature;BMP_pressure;BME280_temperature;BME280_humidity;BME280_pressure;Samples;Min_cycle;Max_cycle;Signal;HPM_P1;HPM_P2
2023/04/01 02:00:21;;;;;;;20.83;11.95;;;;;;;;;;4990141;28;20062;-69
2023/04/01 02:02:49;;;;;;;21.45;12.07;;;;;;;;;;4256930;33;20049;-69
2023/04/01 02:05:17;;;;;;;21.55;12.50;;;;;;;;;;4264426;33;20083;-70
2023/04/01 02:07:46;;;;;;;16.33;9.85;;;;;;;;;;4265045;33;20084;-69
2023/04/01 02:10:13;;;;;;;22.23;12.07;;;;;;;;;;4257465;33;20065;-68
2023/04/01 02:12:40;;;;;;;20.90;13.25;;;;;;;;;;4265530;33;20072;-69
2023/04/01 02:15:09;;;;;;;19.50;11.85;;;;;;;;;;4265271;33;20099;-71
2023/04/01 02:17:39;;;;;;;20.48;12.95;;;;;;;;;;4263481;33;20079;-69
2023/04/01 02:20:21;;;;;;;20.50;12.70;;;;;;;;;;4266603;33;20053;-68
2023/04/01 02:22:52;;;;;;;22.98;13.68;;;;;;;;;;4265128;33;20086;-69
2023/04/01 02:25:22;;;;;;;29.58;15.30;;;;;;;;;;4265347;33;20034;-69
2023/04/01 02:27:49;;;;;;;25.58;14.90;;;;;;;;;;4264049;33;20096;-68
2023/04/01 02:30:16;;;;;;;19.83;12.50;;;;;;;;;;4266213;33;20369;-68
2023/04/01 02:32:43;;;;;;;24.92;14.23;;;;;;;;;;4262955;33;20374;-70
2023/04/01 02:35:10;;;;;;;29.08;15.90;;;;;;;;;;4262150;33;20521;-71
2023/04/01 02:37:37;;;;;;;28.50;16.52;;;;;;;;;;4262737;33;20059;-68
2023/04/01 02:40:06;;;;;;;26.02;13.00;;;;;;;;;;4263616;33;20054;-69
2023/04/01 02:42:32;;;;;;;24.87;14.60;;;;;;;;;;4262241;33;20063;-68
2023/04/01 02:44:58;;;;;;;22.75;13.52;;;;;;;;;;4262567;33;20056;-68
2023/04/01 02:47:25;;;;;;;25.73;14.68;;;;;;;;;;4261101;33;20350;-68
2023/04/01 02:49:57;;;;;;;24.63;12.65;;;;;;;;;;4263030;33;20064;-68
2023/04/01 02:52:26;;;;;;;21.75;14.18;;;;;;;;;;4258388;33;20053;-70
2023/04/01 02:54:53;;;;;;;22.05;13.27;;;;;;;;;;4230732;33;20069;-70
2023/04/01 02:57:19;;;;;;;20.60;12.93;;;;;;;;;;4231974;33;20350;-68
2023/04/01 02:59:46;;;;;;;21.62;12.68;;;;;;;;;;4234664;33;20470;-68
2023/04/01 03:02:12;;;;;;;19.55;12.43;;;;;;;;;;4234871;33;20057;-68
2023/04/01 03:04:38;;;;;;;20.27;12.23;;;;;;;;;;4194809;34;20448;-69
2023/04/01 03:07:05;;;;;;;16.95;11.70;;;;;;;;;;4191403;34;20447;-69
2023/04/01 03:09:31;;;;;;;19.02;11.88;;;;;;;;;;4185299;34;20435;-68
2023/04/01 03:11:57;;;;;;;14.90;9.13;;;;;;;;;;4165441;34;20082;-68
2023/04/01 03:14:23;;;;;;;16.08;10.07;;;;;;;;;;4166240;34;20045;-68
2023/04/01 03:16:50;;;;;;;17.37;10.00;;;;;;;;;;4164684;34;20060;-69
2023/04/01 03:19:16;;;;;;;14.48;9.20;;;;;;;;;;4164780;34;20032;-68
2023/04/01 03:21:42;;;;;;;17.27;9.25;;;;;;;;;;4162532;34;20052;-68
2023/04/01 03:24:08;;;;;;;15.13;8.52;;;;;;;;;;4166017;34;20077;-68
2023/04/01 03:26:34;;;;;;;15.60;8.98;;;;;;;;;;4182852;34;20088;-68
2023/04/01 03:29:00;;;;;;;17.67;9.55;;;;;;;;;;4192115;34;20468;-69
2023/04/01 03:31:27;;;;;;;16.60;9.82;;;;;;;;;;4190646;34;20481;-71
2023/04/01 03:33:53;;;;;;;16.70;8.85;;;;;;;;;;4193146;34;20117;-70
2023/04/01 03:36:20;;;;;;;12.20;8.20;;;;;;;;;;4174479;34;20039;-69
2023/04/01 03:38:46;;;;;;;14.82;7.95;;;;;;;;;;4178578;34;20175;-69
2023/04/01 03:41:14;;;;;;;13.30;8.27;;;;;;;;;;4188363;34;20048;-69
2023/04/01 03:43:40;;;;;;;14.48;7.22;;;;;;;;;;4201944;34;20031;-72
2023/04/01 03:46:07;;;;;;;15.40;8.18;;;;;;;;;;4205783;34;20058;-69
2023/04/01 03:48:33;;;;;;;20.17;8.75;;;;;;;;;;4206101;34;20053;-69
2023/04/01 03:50:59;;;;;;;11.12;7.32;;;;;;;;;;4205991;34;20059;-69
2023/04/01 03:53:26;;;;;;;13.30;7.80;;;;;;;;;;4206125;34;20924;-69
2023/04/01 03:55:56;;;;;;;10.35;7.28;;;;;;;;;;4202996;34;20043;-69
2023/04/01 03:58:22;;;;;;;12.80;7.68;;;;;;;;;;4215728;34;20039;-70
2023/04/01 04:00:49;;;;;;;11.20;7.62;;;;;;;;;;4212923;34;20039;-69
2023/04/01 04:03:16;;;;;;;14.43;7.40;;;;;;;;;;4205585;34;20043;-69
2023/04/01 04:05:46;;;;;;;11.82;7.47;;;;;;;;;;4206244;34;20046;-71
2023/04/01 04:08:12;;;;;;;15.73;6.68;;;;;;;;;;4228251;33;20109;-70
2023/04/01 04:10:39;;;;;;;17.02;7.28;;;;;;;;;;4236326;33;20081;-71
2023/04/01 04:13:05;;;;;;;10.27;6.82;;;;;;;;;;4220294;34;20043;-69
2023/04/01 04:15:32;;;;;;;14.52;7.60;;;;;;;;;;4207547;34;20755;-69
2023/04/01 04:17:58;;;;;;;13.40;6.25;;;;;;;;;;4207645;34;20226;-71
2023/04/01 04:20:25;;;;;;;14.48;6.93;;;;;;;;;;4208553;34;20205;-70
2023/04/01 04:22:51;;;;;;;14.25;7.70;;;;;;;;;;4221976;34;20058;-68
2023/04/01 04:25:18;;;;;;;14.18;8.07;;;;;;;;;;4222699;34;20570;-69
2023/04/01 04:27:44;;;;;;;13.32;6.85;;;;;;;;;;4223300;34;20043;-69
2023/04/01 04:30:17;;;;;;;14.60;7.10;;;;;;;;;;4226484;33;20222;-71
2023/04/01 04:32:43;;;;;;;13.15;7.93;;;;;;;;;;4230997;33;20046;-68
2023/04/01 04:35:10;;;;;;;21.15;6.95;;;;;;;;;;4229858;33;21449;-68
2023/04/01 04:37:36;;;;;;;11.55;6.95;;;;;;;;;;4217840;34;20043;-68
2023/04/01 04:40:03;;;;;;;10.38;6.35;;;;;;;;;;4221811;34;20423;-68
2023/04/01 04:42:29;;;;;;;16.12;8.50;;;;;;;;;;4218931;34;20133;-69
2023/04/01 04:44:56;;;;;;;11.73;7.05;;;;;;;;;;4227701;33;20975;-68
2023/04/01 04:47:23;;;;;;;16.75;7.93;;;;;;;;;;4232227;33;20051;-69
2023/04/01 04:49:49;;;;;;;16.75;8.30;;;;;;;;;;4247039;33;20042;-67
2023/04/01 04:52:15;;;;;;;13.25;8.02;;;;;;;;;;4232665;33;20047;-68
2023/04/01 04:54:42;;;;;;;15.15;8.68;;;;;;;;;;4226834;33;20051;-71
2023/04/01 04:57:08;;;;;;;15.65;7.12;;;;;;;;;;4241500;33;20057;-68
2023/04/01 04:59:35;;;;;;;11.43;6.78;;;;;;;;;;4244330;33;20035;-69
2023/04/01 05:02:01;;;;;;;12.10;6.65;;;;;;;;;;4249715;33;20431;-69
2023/04/01 05:04:28;;;;;;;17.80;7.47;;;;;;;;;;4257201;33;20081;-68
2023/04/01 05:06:54;;;;;;;9.20;6.25;;;;;;;;;;4253957;33;20030;-70
2023/04/01 05:09:21;;;;;;;10.35;5.72;;;;;;;;;;4252244;33;20074;-68
2023/04/01 05:11:47;;;;;;;15.40;8.15;;;;;;;;;;4249627;33;20046;-69
2023/04/01 05:14:20;;;;;;;20.52;9.95;;;;;;;;;;4249662;33;20216;-69
2023/04/01 05:16:47;;;;;;;17.80;10.10;;;;;;;;;;4237951;33;20092;-72
2023/04/01 05:19:13;;;;;;;20.65;8.32;;;;;;;;;;4235655;33;20043;-69
2023/04/01 05:21:46;;;;;;;9.65;5.95;;;;;;;;;;4211533;33;20047;-69
2023/04/01 05:24:13;;;;;;;10.65;6.75;;;;;;;;;;4223470;34;20068;-68
2023/04/01 05:26:39;;;;;;;12.25;7.12;;;;;;;;;;4224120;34;20468;-68
2023/04/01 05:29:05;;;;;;;10.10;6.62;;;;;;;;;;4235227;33;20046;-72
2023/04/01 05:31:32;;;;;;;12.57;7.93;;;;;;;;;;4235029;33;20099;-70
2023/04/01 05:34:01;;;;;;;11.23;7.07;;;;;;;;;;4201750;34;20073;-69
2023/04/01 05:36:27;;;;;;;12.37;6.78;;;;;;;;;;4199658;34;20061;-69
2023/04/01 05:38:56;;;;;;;11.35;7.65;;;;;;;;;;4204757;34;20092;-69
2023/04/01 05:41:22;;;;;;;12.27;7.43;;;;;;;;;;4201770;34;20070;-71
2023/04/01 05:43:49;;;;;;;11.32;7.00;;;;;;;;;;4205002;34;20086;-68
2023/04/01 05:46:16;;;;;;;10.45;6.18;;;;;;;;;;4206526;34;20051;-68
2023/04/01 05:48:44;;;;;;;8.55;6.40;;;;;;;;;;4227921;33;20159;-68
2023/04/01 05:51:14;;;;;;;10.15;6.80;;;;;;;;;;4226478;33;20047;-68
2023/04/01 05:53:41;;;;;;;16.65;6.80;;;;;;;;;;4213123;34;20051;-68
2023/04/01 05:56:09;;;;;;;9.85;6.80;;;;;;;;;;4229168;33;20802;-69
2023/04/01 05:58:36;;;;;;;18.33;7.53;;;;;;;;;;4242642;33;20097;-68
2023/04/01 06:01:04;;;;;;;13.32;6.25;;;;;;;;;;4243048;33;20396;-69
2023/04/01 06:03:30;;;;;;;13.13;6.62;;;;;;;;;;4239240;33;20062;-74
2023/04/01 06:05:56;;;;;;;9.20;6.22;;;;;;;;;;4200795;34;20384;-67
2023/04/01 06:08:23;;;;;;;11.82;6.55;;;;;;;;;;4200836;34;20073;-67
2023/04/01 06:10:49;;;;;;;9.13;6.35;;;;;;;;;;4198680;34;20044;-67
2023/04/01 06:13:21;;;;;;;9.23;5.87;;;;;;;;;;4199222;34;20116;-68
2023/04/01 06:16:06;;;;;;;14.68;7.32;;;;;;;;;;4198428;34;20180;-68
2023/04/01 06:18:35;;;;;;;9.23;6.07;;;;;;;;;;4200214;34;20121;-67
2023/04/01 06:21:07;;;;;;;11.23;6.10;;;;;;;;;;4231003;33;20054;-68
2023/04/01 06:24:04;;;;;;;10.35;6.12;;;;;;;;;;4233169;33;20114;-68
2023/04/01 06:26:37;;;;;;;10.02;5.82;;;;;;;;;;4186792;33;20486;-68
2023/04/01 06:29:22;;;;;;;10.20;5.70;;;;;;;;;;4233057;33;20369;-67
2023/04/01 06:31:50;;;;;;;8.40;6.75;;;;;;;;;;4229607;33;20094;-67
2023/04/01 06:34:23;;;;;;;10.27;6.43;;;;;;;;;;4231130;33;20050;-67
2023/04/01 06:37:01;;;;;;;10.32;6.50;;;;;;;;;;4227667;33;20072;-67
2023/04/01 06:39:47;;;;;;;9.30;6.87;;;;;;;;;;4206031;34;20094;-67
2023/04/01 06:42:22;;;;;;;11.25;5.80;;;;;;;;;;4205553;34;20124;-66
2023/04/01 06:44:53;;;;;;;9.07;6.87;;;;;;;;;;4178577;34;20070;-67
2023/04/01 06:47:38;;;;;;;10.95;6.65;;;;;;;;;;4178954;34;20115;-68
2023/04/01 06:50:21;;;;;;;7.68;6.90;;;;;;;;;;4149897;34;20079;-67
2023/04/01 06:52:57;;;;;;;11.55;6.75;;;;;;;;;;4149407;34;20259;-68
2023/04/01 06:55:42;;;;;;;12.63;6.70;;;;;;;;;;4136914;34;20123;-69
2023/04/01 06:58:14;;;;;;;12.88;6.80;;;;;;;;;;4136532;34;20044;-66
2023/04/01 07:00:43;;;;;;;9.68;5.72;;;;;;;;;;4146499;34;20517;-70
2023/04/01 07:03:18;;;;;;;14.23;6.62;;;;;;;;;;4125714;34;20057;-67
2023/04/01 07:05:45;;;;;;;9.45;6.97;;;;;;;;;;4133764;34;20787;-67
2023/04/01 07:08:15;;;;;;;13.35;6.70;;;;;;;;;;4129078;34;20087;-67
2023/04/01 07:10:46;;;;;;;8.02;5.90;;;;;;;;;;4147526;34;20047;-68
2023/04/01 07:13:21;;;;;;;13.77;7.53;;;;;;;;;;4161343;34;20078;-69
2023/04/01 07:16:06;;;;;;;12.87;7.17;;;;;;;;;;4171511;34;20103;-68
2023/04/01 07:18:47;;;;;;;9.90;5.18;;;;;;;;;;4197067;34;20489;-69
2023/04/01 07:21:29;;;;;;;11.23;6.68;;;;;;;;;;4177971;34;21020;-67
2023/04/01 07:23:58;;;;;;;9.85;6.68;;;;;;;;;;4188712;34;20186;-69
2023/04/01 07:26:26;;;;;;;11.55;6.95;;;;;;;;;;4199131;34;20433;-72
2023/04/01 07:28:56;;;;;;;10.23;6.65;;;;;;;;;;4188481;34;20184;-67
2023/04/01 07:31:41;;;;;;;12.05;7.53;;;;;;;;;;4187392;34;20357;-67
2023/04/01 07:34:07;;;;;;;8.13;6.37;;;;;;;;;;4208165;33;20895;-70
2023/04/01 07:36:43;;;;;;;13.30;9.05;;;;;;;;;;4232837;33;20077;-68
2023/04/01 07:39:17;;;;;;;8.80;6.55;;;;;;;;;;4234582;33;20053;-67
2023/04/01 07:41:56;;;;;;;12.85;7.35;;;;;;;;;;4234243;33;20455;-70
2023/04/01 07:44:23;;;;;;;11.05;7.82;;;;;;;;;;4236562;33;20051;-68
2023/04/01 07:47:01;;;;;;;13.35;8.25;;;;;;;;;;4237131;33;20067;-69
2023/04/01 07:49:36;;;;;;;10.57;6.47;;;;;;;;;;4236484;33;20050;-67
2023/04/01 07:52:15;;;;;;;8.45;6.43;;;;;;;;;;4222388;33;20084;-68
2023/04/01 07:54:49;;;;;;;11.63;7.03;;;;;;;;;;4224528;33;20061;-67
2023/04/01 07:57:22;;;;;;;10.55;6.97;;;;;;;;;;4222696;33;20068;-72
2023/04/01 08:00:01;;;;;;;13.27;5.97;;;;;;;;;;4223012;34;20229;-69
2023/04/01 08:02:41;;;;;;;6.80;5.82;;;;;;;;;;4205335;34;20046;-67
2023/04/01 08:05:10;;;;;;;7.15;5.90;;;;;;;;;;4206045;34;20096;-67
2023/04/01 08:07:53;;;;;;;9.20;6.20;;;;;;;;;;4192449;34;20048;-68
2023/04/01 08:10:32;;;;;;;6.97;5.43;;;;;;;;;;4194334;34;20073;-66
2023/04/01 08:13:07;;;;;;;10.93;5.37;;;;;;;;;;4179953;34;20067;-67
2023/04/01 08:15:42;;;;;;;8.88;5.45;;;;;;;;;;4191813;34;20085;-66
2023/04/01 08:18:19;;;;;;;10.32;5.90;;;;;;;;;;4195717;34;20059;-67
2023/04/01 08:21:00;;;;;;;13.02;6.65;;;;;;;;;;4167832;34;20361;-68
2023/04/01 08:23:44;;;;;;;7.05;5.40;;;;;;;;;;4154644;34;20064;-69
2023/04/01 08:26:23;;;;;;;9.02;6.60;;;;;;;;;;4163664;34;20464;-69
2023/04/01 08:28:52;;;;;;;8.48;5.05;;;;;;;;;;4164976;34;20055;-68
2023/04/01 08:31:41;;;;;;;9.73;6.32;;;;;;;;;;4173905;34;20060;-69
2023/04/01 08:34:15;;;;;;;9.50;5.97;;;;;;;;;;4166720;34;20117;-68
2023/04/01 08:36:54;;;;;;;7.12;6.05;;;;;;;;;;4181636;34;20563;-69
2023/04/01 08:39:25;;;;;;;8.90;6.45;;;;;;;;;;4220953;33;20458;-68
2023/04/01 08:41:51;;;;;;;9.47;5.33;;;;;;;;;;4235246;33;20361;-68
2023/04/01 08:44:26;;;;;;;6.80;5.15;;;;;;;;;;4208573;34;20077;-69
2023/04/01 08:47:11;;;;;;;7.37;5.75;;;;;;;;;;4206360;34;20055;-69
2023/04/01 08:49:45;;;;;;;8.20;6.32;;;;;;;;;;4204104;34;20116;-69
2023/04/01 08:52:21;;;;;;;6.82;5.55;;;;;;;;;;4215834;33;20055;-68
2023/04/01 08:55:10;;;;;;;6.30;4.97;;;;;;;;;;4227642;33;20430;-69
2023/04/01 08:58:02;;;;;;;7.20;6.37;;;;;;;;;;4210513;33;20193;-68
2023/04/01 09:00:49;;;;;;;11.80;5.85;;;;;;;;;;4211110;33;20057;-68
2023/04/01 09:03:34;;;;;;;8.60;6.20;;;;;;;;;;4221663;33;20054;-69
2023/04/01 09:06:00;;;;;;;8.75;6.72;;;;;;;;;;4222174;33;20566;-68
2023/04/01 09:08:27;;;;;;;10.82;5.75;;;;;;;;;;4215474;33;20042;-68
2023/04/01 09:10:59;;;;;;;6.35;4.25;;;;;;;;;;4222691;33;20055;-68
2023/04/01 09:13:27;;;;;;;14.68;5.47;;;;;;;;;;4222219;33;20096;-69
2023/04/01 09:16:12;;;;;;;7.22;5.87;;;;;;;;;;4232115;33;20058;-68
2023/04/01 09:18:42;;;;;;;8.07;4.72;;;;;;;;;;4243282;33;20161;-68
2023/04/01 09:21:09;;;;;;;5.57;3.70;;;;;;;;;;4238281;33;20042;-68
2023/04/01 09:23:57;;;;;;;7.20;4.72;;;;;;;;;;4244136;33;20120;-69
2023/04/01 09:26:27;;;;;;;7.70;4.80;;;;;;;;;;4230624;33;20059;-68
2023/04/01 09:29:12;;;;;;;5.45;4.32;;;;;;;;;;4223917;33;20451;-68
2023/04/01 09:31:39;;;;;;;4.43;4.03;;;;;;;;;;4233111;33;20080;-69
2023/04/01 09:34:45;;;;;;;5.07;4.40;;;;;;;;;;4238835;33;20083;-68
2023/04/01 09:37:19;;;;;;;5.93;4.85;;;;;;;;;;4211352;34;20117;-68
2023/04/01 09:40:08;;;;;;;4.80;3.83;;;;;;;;;;4210744;34;20051;-67
2023/04/01 09:43:01;;;;;;;4.70;4.30;;;;;;;;;;4210603;34;20051;-73
2023/04/01 09:45:27;;;;;;;;;;;;;;;;;;4202811;34;20042;-68
2023/04/01 09:48:26;;;;;;;10.10;5.18;;;;;;;;;;4211605;34;19950;-68
2023/04/01 09:50:55;;;;;;;6.22;4.95;;;;;;;;;;4141169;34;20495;-67
2023/04/01 09:53:24;;;;;;;6.00;4.43;;;;;;;;;;4143707;34;20534;-68
2023/04/01 09:55:56;;;;;;;10.25;5.18;;;;;;;;;;4128231;34;20045;-70
2023/04/01 09:58:38;;;;;;;8.10;4.18;;;;;;;;;;4150772;34;20074;-67
2023/04/01 10:01:17;;;;;;;5.28;4.25;;;;;;;;;;4152442;34;20044;-67
2023/04/01 10:03:52;;;;;;;7.32;5.40;;;;;;;;;;4120365;34;20115;-67
2023/04/01 10:06:18;;;;;;;2.10;2.00;;;;;;;;;;4110905;34;20071;-67
2023/04/01 10:08:57;;;;;;;3.70;3.40;;;;;;;;;;4120181;34;20079;-68
2023/04/01 10:11:42;;;;;;;5.68;4.12;;;;;;;;;;4125166;34;20075;-67
2023/04/01 10:14:27;;;;;;;27.48;11.55;;;;;;;;;;4105329;34;20053;-68
2023/04/01 10:17:07;;;;;;;5.22;3.95;;;;;;;;;;4094948;34;20066;-68
2023/04/01 10:19:48;;;;;;;4.50;4.10;;;;;;;;;;4098009;35;20470;-68
2023/04/01 10:22:24;;;;;;;4.37;3.97;;;;;;;;;;4097202;34;20117;-69
2023/04/01 10:25:09;;;;;;;4.60;4.15;;;;;;;;;;4097031;35;20073;-66
2023/04/01 10:27:41;;;;;;;6.95;3.85;;;;;;;;;;4135344;34;20059;-68
2023/04/01 10:30:11;;;;;;;7.25;4.72;;;;;;;;;;4149822;34;20052;-69
2023/04/01 10:32:56;;;;;;;4.68;3.33;;;;;;;;;;4152479;34;20144;-67
2023/04/01 10:35:41;;;;;;;5.72;4.18;;;;;;;;;;4152302;34;20748;-67
2023/04/01 10:38:22;;;;;;;4.93;3.55;;;;;;;;;;4173432;34;20079;-67
2023/04/01 10:40:58;;;;;;;4.55;3.78;;;;;;;;;;4194214;34;20059;-69
2023/04/01 10:43:34;;;;;;;6.00;4.12;;;;;;;;;;4211314;34;20040;-69
2023/04/01 10:46:18;;;;;;;3.60;3.25;;;;;;;;;;4205906;34;20055;-68
2023/04/01 10:49:03;;;;;;;4.62;4.00;;;;;;;;;;4195378;34;20090;-69
2023/04/01 10:51:33;;;;;;;4.65;3.95;;;;;;;;;;4196995;34;20069;-68
2023/04/01 10:54:05;;;;;;;6.53;4.18;;;;;;;;;;4201275;34;20031;-68
2023/04/01 10:56:40;;;;;;;8.50;4.82;;;;;;;;;;4201300;34;20058;-67
2023/04/01 10:59:13;;;;;;;5.65;4.90;;;;;;;;;;4201326;34;20114;-67
2023/04/01 11:01:51;;;;;;;11.75;5.95;;;;;;;;;;4316690;28;20733;-67
2023/04/01 11:04:19;;;;;;;6.82;5.30;;;;;;;;;;4177508;34;20097;-66
2023/04/01 11:07:04;;;;;;;9.63;5.87;;;;;;;;;;4153590;34;20421;-67
2023/04/01 11:09:42;;;;;;;5.78;4.93;;;;;;;;;;4157247;34;20050;-67
2023/04/01 11:12:15;;;;;;;12.65;5.37;;;;;;;;;;4148675;34;20060;-67
2023/04/01 11:15:08;;;;;;;16.73;5.00;;;;;;;;;;4141410;34;20057;-68
2023/04/01 11:17:59;;;;;;;6.12;4.32;;;;;;;;;;4126528;34;20065;-67
2023/04/01 11:20:34;;;;;;;7.03;3.92;;;;;;;;;;4133601;34;20755;-68
2023/04/01 11:23:27;;;;;;;4.50;2.95;;;;;;;;;;4137523;34;20054;-68
2023/04/01 11:25:53;;;;;;;;;;;;;;;;;;4132791;34;20071;-68
2023/04/01 11:28:45;;;;;;;5.95;3.50;;;;;;;;;;4146404;34;20327;-67
2023/04/01 11:31:31;;;;;;;4.55;3.70;;;;;;;;;;4149940;34;20457;-68
2023/04/01 11:34:13;;;;;;;6.20;4.40;;;;;;;;;;4152154;34;20117;-68
2023/04/01 11:37:01;;;;;;;9.65;5.12;;;;;;;;;;4177156;34;20040;-66
2023/04/01 11:39:28;;;;;;;8.13;4.50;;;;;;;;;;4196738;34;20858;-67
2023/04/01 11:42:07;;;;;;;8.93;5.55;;;;;;;;;;4201211;34;20051;-70
2023/04/01 11:44:46;;;;;;;9.10;5.10;;;;;;;;;;4215737;33;20043;-68
2023/04/01 11:47:13;;;;;;;14.52;8.00;;;;;;;;;;4177063;34;20906;-68
2023/04/01 11:49:49;;;;;;;9.65;4.00;;;;;;;;;;4191802;34;20447;-69
2023/04/01 11:52:34;;;;;;;14.27;5.85;;;;;;;;;;4184619;34;20051;-67
2023/04/01 11:55:10;;;;;;;6.60;4.60;;;;;;;;;;4178853;34;20054;-67
2023/04/01 11:57:36;;;;;;;3.20;2.90;;;;;;;;;;4155217;34;20154;-67
2023/04/01 12:00:02;;;;;;;3.25;2.95;;;;;;;;;;4164819;34;20063;-67
2023/04/01 12:02:48;;;;;;;5.78;3.28;;;;;;;;;;4155646;34;20064;-68
2023/04/01 12:05:26;;;;;;;6.35;3.58;;;;;;;;;;4164611;34;20133;-67
2023/04/01 12:08:00;;;;;;;2.72;2.53;;;;;;;;;;4151783;34;20045;-68
2023/04/01 12:10:27;;;;;;;3.90;3.10;;;;;;;;;;4143303;34;20561;-67
2023/04/01 12:13:13;;;;;;;3.17;2.85;;;;;;;;;;4144513;34;20052;-68
2023/04/01 12:16:04;;;;;;;4.47;3.03;;;;;;;;;;4145560;34;20052;-67
2023/04/01 12:18:36;;;;;;;3.80;3.40;;;;;;;;;;4166669;34;20445;-70
2023/04/01 12:21:14;;;;;;;5.35;4.47;;;;;;;;;;4185025;34;20172;-66
2023/04/01 12:23:52;;;;;;;4.05;2.97;;;;;;;;;;4175468;34;20048;-66
2023/04/01 12:26:19;;;;;;;8.85;2.95;;;;;;;;;;4186305;34;20061;-70
2023/04/01 12:28:45;;;;;;;5.55;4.07;;;;;;;;;;4171984;34;20119;-67
2023/04/01 12:31:34;;;;;;;4.37;2.60;;;;;;;;;;4183815;34;20819;-69
2023/04/01 12:34:04;;;;;;;7.65;4.30;;;;;;;;;;4178949;34;20065;-69
2023/04/01 12:36:49;;;;;;;8.95;4.22;;;;;;;;;;4174602;34;20048;-67
2023/04/01 12:39:20;;;;;;;12.13;4.72;;;;;;;;;;4167413;34;20058;-67
2023/04/01 12:41:55;;;;;;;7.57;4.03;;;;;;;;;;4169991;34;20060;-71
2023/04/01 12:44:42;;;;;;;6.07;4.07;;;;;;;;;;4181652;34;20923;-68
2023/04/01 12:47:26;;;;;;;5.30;4.43;;;;;;;;;;4174569;34;20087;-65
2023/04/01 12:50:11;;;;;;;3.92;3.55;;;;;;;;;;4161547;34;20048;-68
2023/04/01 12:52:38;;;;;;;5.78;4.28;;;;;;;;;;4162382;34;20078;-68
2023/04/01 12:55:28;;;;;;;5.40;4.15;;;;;;;;;;4154924;34;20025;-71
2023/04/01 12:57:57;;;;;;;8.55;4.75;;;;;;;;;;4163838;34;20116;-68
2023/04/01 13:00:37;;;;;;;8.10;5.03;;;;;;;;;;4153820;34;20437;-68
2023/04/01 13:03:17;;;;;;;9.10;5.00;;;;;;;;;;4153895;34;20073;-68
2023/04/01 13:05:43;;;;;;;9.05;5.87;;;;;;;;;;4158077;34;20040;-69
2023/04/01 13:08:17;;;;;;;7.32;4.70;;;;;;;;;;4176872;34;20085;-68
2023/04/01 13:10:57;;;;;;;7.47;4.85;;;;;;;;;;4180324;34;20110;-70
2023/04/01 13:13:33;;;;;;;6.95;4.55;;;;;;;;;;4194415;34;21100;-69
2023/04/01 13:16:08;;;;;;;7.47;4.72;;;;;;;;;;4179706;34;20063;-70
2023/04/01 13:18:53;;;;;;;8.20;5.28;;;;;;;;;;4194963;34;20063;-68
2023/04/01 13:21:34;;;;;;;8.00;5.62;;;;;;;;;;4184734;34;20293;-68
2023/04/01 13:24:30;;;;;;;8.95;6.12;;;;;;;;;;4190461;34;20055;-71
2023/04/01 13:27:10;;;;;;;11.45;6.82;;;;;;;;;;4163693;34;20044;-68
2023/04/01 13:29:39;;;;;;;10.05;6.15;;;;;;;;;;4160171;34;20060;-68
2023/04/01 13:32:05;;;;;;;11.00;6.95;;;;;;;;;;4167604;34;20500;-69
2023/04/01 13:35:04;;;;;;;13.50;7.40;;;;;;;;;;4159194;34;20056;-68
2023/04/01 13:37:42;;;;;;;17.98;9.18;;;;;;;;;;4138126;34;20044;-67
2023/04/01 13:40:17;;;;;;;15.02;9.30;;;;;;;;;;4154688;34;20096;-68
2023/04/01 13:43:13;;;;;;;16.02;8.50;;;;;;;;;;4153067;34;20028;-70
2023/04/01 13:45:55;;;;;;;18.65;9.45;;;;;;;;;;4119559;34;20054;-70
2023/04/01 13:48:32;;;;;;;13.07;7.35;;;;;;;;;;4139001;34;20044;-68
2023/04/01 13:50:59;;;;;;;16.30;8.68;;;;;;;;;;4141190;34;20087;-67
2023/04/01 13:53:25;;;;;;;16.67;7.50;;;;;;;;;;4165637;34;20083;-67
2023/04/01 13:56:00;;;;;;;21.73;10.15;;;;;;;;;;4167428;34;20052;-68
2023/04/01 13:58:38;;;;;;;16.80;9.15;;;;;;;;;;4166869;34;20115;-72
2023/04/01 14:01:04;;;;;;;16.40;8.05;;;;;;;;;;4167650;34;20468;-67
2023/04/01 14:03:40;;;;;;;18.35;7.70;;;;;;;;;;4160351;34;20066;-67
2023/04/01 14:06:07;;;;;;;13.93;7.70;;;;;;;;;;4163849;34;20084;-72
2023/04/01 14:08:36;;;;;;;15.90;8.38;;;;;;;;;;4180914;34;20047;-68
2023/04/01 14:11:09;;;;;;;10.35;6.72;;;;;;;;;;4181021;34;20081;-70
2023/04/01 14:13:47;;;;;;;9.93;6.93;;;;;;;;;;4185321;34;20195;-68
2023/04/01 14:16:31;;;;;;;8.60;5.87;;;;;;;;;;4183785;34;20189;-72
2023/04/01 14:19:11;;;;;;;6.05;4.40;;;;;;;;;;4208590;34;20035;-67
2023/04/01 14:22:10;;;;;;;12.93;6.22;;;;;;;;;;4207405;34;20091;-70
2023/04/01 14:24:42;;;;;;;10.85;6.85;;;;;;;;;;4167839;34;20105;-69
2023/04/01 14:27:47;;;;;;;12.35;7.25;;;;;;;;;;4167566;34;20101;-69
2023/04/01 14:30:31;;;;;;;11.52;7.37;;;;;;;;;;4140420;34;20044;-67
2023/04/01 14:33:07;;;;;;;14.57;8.07;;;;;;;;;;4124803;34;20103;-68
2023/04/01 14:35:52;;;;;;;15.93;8.55;;;;;;;;;;4138676;34;20040;-69
2023/04/01 14:38:30;;;;;;;14.07;7.90;;;;;;;;;;4145935;34;20075;-70
2023/04/01 14:41:00;;;;;;;12.25;7.28;;;;;;;;;;4150379;34;20052;-70
2023/04/01 14:43:32;;;;;;;11.27;7.20;;;;;;;;;;4139423;34;20207;-69
2023/04/01 14:46:01;;;;;;;12.02;6.85;;;;;;;;;;4154684;34;20166;-73
2023/04/01 14:48:33;;;;;;;16.30;8.30;;;;;;;;;;4158303;34;20102;-70
2023/04/01 14:51:23;;;;;;;6.55;5.05;;;;;;;;;;4139297;34;20071;-69
2023/04/01 14:53:58;;;;;;;13.48;6.78;;;;;;;;;;4116924;34;20049;-69
2023/04/01 14:56:37;;;;;;;10.52;6.37;;;;;;;;;;4116725;34;20073;-69
2023/04/01 14:59:21;;;;;;;7.85;5.12;;;;;;;;;;4120061;34;20065;-69
2023/04/01 15:01:48;;;;;;;14.80;8.00;;;;;;;;;;4146749;34;20099;-69
2023/04/01 15:04:20;;;;;;;10.60;6.15;;;;;;;;;;4159478;34;20073;-69
2023/04/01 15:07:00;;;;;;;19.37;7.40;;;;;;;;;;4151615;34;20045;-70
2023/04/01 15:09:35;;;;;;;15.80;8.50;;;;;;;;;;4154537;34;20412;-69
2023/04/01 15:12:21;;;;;;;13.73;8.15;;;;;;;;;;4151515;34;20078;-72
2023/04/01 15:15:00;;;;;;;16.67;9.13;;;;;;;;;;4141993;34;20228;-72
2023/04/01 15:17:41;;;;;;;10.90;6.43;;;;;;;;;;4142132;34;20507;-69
2023/04/01 15:20:26;;;;;;;19.17;8.77;;;;;;;;;;4137561;34;20092;-68
2023/04/01 15:22:55;;;;;;;11.77;6.35;;;;;;;;;;4173923;34;20309;-68
2023/04/01 15:25:34;;;;;;;13.43;6.78;;;;;;;;;;4197827;34;20054;-68
2023/04/01 15:28:10;;;;;;;20.05;10.70;;;;;;;;;;4207069;34;20196;-68
2023/04/01 15:30:52;;;;;;;16.73;9.77;;;;;;;;;;4206472;34;20328;-69
2023/04/01 15:33:28;;;;;;;19.33;9.25;;;;;;;;;;4201348;34;20540;-68
2023/04/01 15:36:10;;;;;;;18.73;9.27;;;;;;;;;;4200614;34;20070;-70
2023/04/01 15:38:42;;;;;;;19.00;11.65;;;;;;;;;;4193284;34;20107;-67
2023/04/01 15:41:16;;;;;;;24.00;10.90;;;;;;;;;;4202884;34;20061;-68
2023/04/01 15:43:48;;;;;;;29.17;12.00;;;;;;;;;;4216510;34;20210;-68
2023/04/01 15:46:25;;;;;;;24.77;12.40;;;;;;;;;;4213162;33;20047;-67
2023/04/01 15:49:08;;;;;;;26.50;12.37;;;;;;;;;;4213289;33;20031;-67
2023/04/01 15:51:40;;;;;;;23.33;12.13;;;;;;;;;;4191910;34;20032;-68
2023/04/01 15:54:16;;;;;;;29.08;11.70;;;;;;;;;;4151321;34;20054;-68
2023/04/01 15:56:49;;;;;;;28.42;10.93;;;;;;;;;;4145022;34;20070;-67
2023/04/01 15:59:24;;;;;;;38.40;11.60;;;;;;;;;;4144911;34;20078;-67
2023/04/01 16:01:50;;;;;;;21.98;10.10;;;;;;;;;;4156668;34;20433;-66
2023/04/01 16:04:17;;;;;;;34.10;10.65;;;;;;;;;;4151112;34;20075;-68
2023/04/01 16:06:43;;;;;;;33.95;12.88;;;;;;;;;;4148819;34;20109;-67
2023/04/01 16:09:30;;;;;;;10.48;4.57;;;;;;;;;;4150777;34;20033;-68
2023/04/01 16:12:15;;;;;;;30.05;10.63;;;;;;;;;;4155988;34;20056;-68
2023/04/01 16:14:50;;;;;;;48.85;9.73;;;;;;;;;;4144719;34;20066;-71
2023/04/01 16:17:20;;;;;;;27.90;11.27;;;;;;;;;;4143138;34;20087;-68
2023/04/01 16:19:51;;;;;;;21.67;11.05;;;;;;;;;;4135174;34;20474;-68
2023/04/01 16:22:32;;;;;;;15.48;7.90;;;;;;;;;;4152703;34;20126;-68
2023/04/01 16:25:16;;;;;;;16.55;10.05;;;;;;;;;;4168581;34;20087;-67
2023/04/01 16:27:51;;;;;;;14.87;8.25;;;;;;;;;;4175091;34;20092;-67
2023/04/01 16:30:21;;;;;;;18.70;9.40;;;;;;;;;;4190686;34;20053;-69
2023/04/01 16:32:54;;;;;;;26.70;11.60;;;;;;;;;;4207985;34;20503;-68
2023/04/01 16:35:26;;;;;;;18.85;9.52;;;;;;;;;;4195494;34;20047;-68
2023/04/01 16:38:08;;;;;;;15.65;8.93;;;;;;;;;;4186939;34;20162;-71
2023/04/01 16:40:34;;;;;;;10.25;6.00;;;;;;;;;;4183156;34;20076;-67
2023/04/01 16:43:11;;;;;;;14.15;9.95;;;;;;;;;;4188517;34;20115;-68
2023/04/01 16:45:47;;;;;;;17.58;10.43;;;;;;;;;;4193474;34;20488;-68
2023/04/01 16:48:16;;;;;;;18.83;9.73;;;;;;;;;;4199414;34;20299;-68
2023/04/01 16:50:55;;;;;;;17.23;8.25;;;;;;;;;;4181807;34;20070;-68
2023/04/01 16:53:24;;;;;;;19.92;10.38;;;;;;;;;;4168277;34;20466;-71
2023/04/01 16:56:10;;;;;;;17.55;10.00;;;;;;;;;;4160494;34;20033;-68
2023/04/01 16:58:42;;;;;;;20.85;10.32;;;;;;;;;;4151011;34;20509;-69
2023/04/01 17:01:20;;;;;;;17.83;10.38;;;;;;;;;;4148056;34;20890;-72
2023/04/01 17:03:49;;;;;;;15.07;8.98;;;;;;;;;;4154234;34;20049;-68
2023/04/01 17:06:24;;;;;;;13.77;6.97;;;;;;;;;;4153167;34;20074;-67
2023/04/01 17:08:50;;;;;;;10.73;5.93;;;;;;;;;;4153719;34;20062;-68
2023/04/01 17:11:18;;;;;;;21.60;10.23;;;;;;;;;;4153137;34;20414;-68
2023/04/01 17:13:44;;;;;;;15.45;8.27;;;;;;;;;;4168917;34;20523;-68